Lakewood, New Mexico
Current Conditions -  °F | °C
As of 6:53 PM on Monday 24 Nov 2014 (Local Time) from KCNM Reporting Station
Broken Clouds Broken Clouds  
Wind Chill: 45°   Ceiling: 11000
Heat Index: 48°   Visibility: 10mi
Dew Point: 12°   Wind: 7mph
Humidity: 24%   Direction: 310°NW
Pressure: 30.1"   Gusts: NA
Location:  32.63°N, 104.38°W
Report Text: KCNM 250153Z AUTO 31006KT 10SM BKN110 09/M11 A3010 RMK AO2 SLP186 T00891111
Loading
Personal Weather Stations






























Interactive Weather Map New forecast layout! Learn more

10-Day Weather Forecast

Advertisements
Track Severe Weather on mobile